sensor_id;sensor_type;location;lat;lon;timestamp;temperature;humidity
25352;DHT22;13304;48.464;8.712;2023-07-31T00:00:14;18.40;77.30
25352;DHT22;13304;48.464;8.712;2023-07-31T00:02:41;18.40;77.40
25352;DHT22;13304;48.464;8.712;2023-07-31T00:05:08;18.40;77.70
25352;DHT22;13304;48.464;8.712;2023-07-31T00:07:34;18.30;78.00
25352;DHT22;13304;48.464;8.712;2023-07-31T00:09:59;18.30;78.00
25352;DHT22;13304;48.464;8.712;2023-07-31T00:12:25;18.30;78.20
25352;DHT22;13304;48.464;8.712;2023-07-31T00:14:51;18.30;78.20
25352;DHT22;13304;48.464;8.712;2023-07-31T00:17:17;18.30;78.30
25352;DHT22;13304;48.464;8.712;2023-07-31T00:19:43;18.20;78.00
25352;DHT22;13304;48.464;8.712;2023-07-31T00:22:08;18.20;77.90
25352;DHT22;13304;48.464;8.712;2023-07-31T00:24:34;18.20;77.80
25352;DHT22;13304;48.464;8.712;2023-07-31T00:26:59;18.20;77.60
25352;DHT22;13304;48.464;8.712;2023-07-31T00:29:25;18.10;77.70
25352;DHT22;13304;48.464;8.712;2023-07-31T00:31:51;18.10;77.70
25352;DHT22;13304;48.464;8.712;2023-07-31T00:34:16;18.10;77.60
25352;DHT22;13304;48.464;8.712;2023-07-31T00:36:42;18.00;77.40
25352;DHT22;13304;48.464;8.712;2023-07-31T00:39:07;18.00;77.50
25352;DHT22;13304;48.464;8.712;2023-07-31T00:41:33;18.00;77.50
25352;DHT22;13304;48.464;8.712;2023-07-31T00:43:58;17.90;77.60
25352;DHT22;13304;48.464;8.712;2023-07-31T00:46:24;17.90;77.70
25352;DHT22;13304;48.464;8.712;2023-07-31T00:48:50;17.90;77.70
25352;DHT22;13304;48.464;8.712;2023-07-31T00:51:15;17.80;77.70
25352;DHT22;13304;48.464;8.712;2023-07-31T00:53:42;17.80;77.70
25352;DHT22;13304;48.464;8.712;2023-07-31T00:56:08;17.80;77.80
25352;DHT22;13304;48.464;8.712;2023-07-31T00:58:35;17.80;77.90
25352;DHT22;13304;48.464;8.712;2023-07-31T01:01:01;17.80;78.00
25352;DHT22;13304;48.464;8.712;2023-07-31T01:03:26;17.80;78.10
25352;DHT22;13304;48.464;8.712;2023-07-31T01:11:27;17.60;78.10
25352;DHT22;13304;48.464;8.712;2023-07-31T01:13:57;17.60;78.20
25352;DHT22;13304;48.464;8.712;2023-07-31T01:16:25;17.60;78.30
25352;DHT22;13304;48.464;8.712;2023-07-31T01:18:51;17.60;78.40
25352;DHT22;13304;48.464;8.712;2023-07-31T01:26:41;17.60;78.80
25352;DHT22;13304;48.464;8.712;2023-07-31T01:29:26;17.60;78.80
25352;DHT22;13304;48.464;8.712;2023-07-31T01:31:56;17.60;78.70
25352;DHT22;13304;48.464;8.712;2023-07-31T01:34:22;17.60;78.80
25352;DHT22;13304;48.464;8.712;2023-07-31T01:36:48;17.60;78.80
25352;DHT22;13304;48.464;8.712;2023-07-31T01:39:14;17.60;78.80
25352;DHT22;13304;48.464;8.712;2023-07-31T01:41:41;17.50;79.00
25352;DHT22;13304;48.464;8.712;2023-07-31T01:44:06;17.50;79.10
25352;DHT22;13304;48.464;8.712;2023-07-31T01:46:32;17.50;79.30
25352;DHT22;13304;48.464;8.712;2023-07-31T01:48:57;17.50;79.50
25352;DHT22;13304;48.464;8.712;2023-07-31T01:51:23;17.50;79.50
25352;DHT22;13304;48.464;8.712;2023-07-31T01:53:49;17.50;80.30
25352;DHT22;13304;48.464;8.712;2023-07-31T01:56:14;17.50;79.70
25352;DHT22;13304;48.464;8.712;2023-07-31T01:58:40;17.50;79.90
25352;DHT22;13304;48.464;8.712;2023-07-31T02:01:05;17.50;80.00
25352;DHT22;13304;48.464;8.712;2023-07-31T02:03:31;17.50;79.90
25352;DHT22;13304;48.464;8.712;2023-07-31T02:05:57;17.50;79.90
25352;DHT22;13304;48.464;8.712;2023-07-31T02:08:22;17.50;79.80
25352;DHT22;13304;48.464;8.712;2023-07-31T02:10:48;17.50;79.60
25352;DHT22;13304;48.464;8.712;2023-07-31T02:13:14;17.50;79.50
25352;DHT22;13304;48.464;8.712;2023-07-31T02:15:39;17.50;79.40
25352;DHT22;13304;48.464;8.712;2023-07-31T02:18:05;17.40;79.40
25352;DHT22;13304;48.464;8.712;2023-07-31T02:20:33;17.40;79.60
25352;DHT22;13304;48.464;8.712;2023-07-31T02:22:59;17.40;79.60
25352;DHT22;13304;48.464;8.712;2023-07-31T02:25:25;17.40;79.70
25352;DHT22;13304;48.464;8.712;2023-07-31T02:27:50;17.40;79.70
25352;DHT22;13304;48.464;8.712;2023-07-31T02:30:16;17.40;79.80
25352;DHT22;13304;48.464;8.712;2023-07-31T02:32:41;17.40;80.10
25352;DHT22;13304;48.464;8.712;2023-07-31T02:35:07;17.40;80.20
25352;DHT22;13304;48.464;8.712;2023-07-31T02:37:34;17.30;80.00
25352;DHT22;13304;48.464;8.712;2023-07-31T02:39:59;17.30;80.00
25352;DHT22;13304;48.464;8.712;2023-07-31T02:42:25;17.30;80.10
25352;DHT22;13304;48.464;8.712;2023-07-31T02:44:51;17.30;80.10
25352;DHT22;13304;48.464;8.712;2023-07-31T02:47:21;17.30;80.10
25352;DHT22;13304;48.464;8.712;2023-07-31T02:49:47;17.30;80.10
25352;DHT22;13304;48.464;8.712;2023-07-31T02:52:12;17.30;80.10
25352;DHT22;13304;48.464;8.712;2023-07-31T02:54:38;17.30;80.20
25352;DHT22;13304;48.464;8.712;2023-07-31T02:57:04;17.30;80.30
25352;DHT22;13304;48.464;8.712;2023-07-31T02:59:30;17.30;80.20
25352;DHT22;13304;48.464;8.712;2023-07-31T03:01:55;17.20;80.20
25352;DHT22;13304;48.464;8.712;2023-07-31T03:04:21;17.20;80.20
25352;DHT22;13304;48.464;8.712;2023-07-31T03:06:47;17.20;80.10
25352;DHT22;13304;48.464;8.712;2023-07-31T03:09:12;17.20;80.20
25352;DHT22;13304;48.464;8.712;2023-07-31T03:11:38;17.20;80.20
25352;DHT22;13304;48.464;8.712;2023-07-31T03:14:03;17.20;80.20
25352;DHT22;13304;48.464;8.712;2023-07-31T03:16:29;17.20;80.30
25352;DHT22;13304;48.464;8.712;2023-07-31T03:18:54;17.20;80.60
25352;DHT22;13304;48.464;8.712;2023-07-31T03:21:20;17.20;80.80
25352;DHT22;13304;48.464;8.712;2023-07-31T03:23:46;17.20;80.70
25352;DHT22;13304;48.464;8.712;2023-07-31T03:26:11;17.20;80.70
25352;DHT22;13304;48.464;8.712;2023-07-31T03:28:37;17.20;80.60
25352;DHT22;13304;48.464;8.712;2023-07-31T03:31:03;17.20;80.60
25352;DHT22;13304;48.464;8.712;2023-07-31T03:33:28;17.20;80.60
25352;DHT22;13304;48.464;8.712;2023-07-31T03:35:54;17.20;80.80
25352;DHT22;13304;48.464;8.712;2023-07-31T03:38:19;17.20;80.80
25352;DHT22;13304;48.464;8.712;2023-07-31T03:40:45;17.20;80.80
25352;DHT22;13304;48.464;8.712;2023-07-31T03:43:12;17.20;80.90
25352;DHT22;13304;48.464;8.712;2023-07-31T03:45:38;17.20;80.90
25352;DHT22;13304;48.464;8.712;2023-07-31T03:48:04;17.20;81.00
25352;DHT22;13304;48.464;8.712;2023-07-31T03:50:30;17.10;81.20
25352;DHT22;13304;48.464;8.712;2023-07-31T03:52:55;17.20;81.30
25352;DHT22;13304;48.464;8.712;2023-07-31T03:55:21;17.20;81.40
25352;DHT22;13304;48.464;8.712;2023-07-31T03:57:47;17.20;81.40
25352;DHT22;13304;48.464;8.712;2023-07-31T04:00:14;17.20;81.50
25352;DHT22;13304;48.464;8.712;2023-07-31T04:02:39;17.20;81.70
25352;DHT22;13304;48.464;8.712;2023-07-31T04:05:05;17.20;81.70
25352;DHT22;13304;48.464;8.712;2023-07-31T04:07:31;17.20;81.70
25352;DHT22;13304;48.464;8.712;2023-07-31T04:09:57;17.20;81.70
25352;DHT22;13304;48.464;8.712;2023-07-31T04:12:22;17.30;81.80
25352;DHT22;13304;48.464;8.712;2023-07-31T04:14:48;17.20;81.70
25352;DHT22;13304;48.464;8.712;2023-07-31T04:17:14;17.30;81.80
25352;DHT22;13304;48.464;8.712;2023-07-31T04:19:39;17.30;81.80
25352;DHT22;13304;48.464;8.712;2023-07-31T04:22:05;17.30;81.80
25352;DHT22;13304;48.464;8.712;2023-07-31T04:24:31;17.20;81.90
25352;DHT22;13304;48.464;8.712;2023-07-31T04:26:56;17.20;82.10
25352;DHT22;13304;48.464;8.712;2023-07-31T04:29:22;17.30;82.20
25352;DHT22;13304;48.464;8.712;2023-07-31T04:31:48;17.30;82.10
25352;DHT22;13304;48.464;8.712;2023-07-31T04:34:14;17.30;82.20
25352;DHT22;13304;48.464;8.712;2023-07-31T04:36:39;17.30;82.20
25352;DHT22;13304;48.464;8.712;2023-07-31T04:39:05;17.30;82.10
25352;DHT22;13304;48.464;8.712;2023-07-31T04:41:31;17.30;82.10
25352;DHT22;13304;48.464;8.712;2023-07-31T04:43:56;17.30;82.10
25352;DHT22;13304;48.464;8.712;2023-07-31T04:46:22;17.30;82.10
25352;DHT22;13304;48.464;8.712;2023-07-31T04:48:48;17.30;82.20
25352;DHT22;13304;48.464;8.712;2023-07-31T04:51:13;17.40;82.30
25352;DHT22;13304;48.464;8.712;2023-07-31T04:53:39;17.40;82.40
25352;DHT22;13304;48.464;8.712;2023-07-31T04:56:04;17.40;82.50
25352;DHT22;13304;48.464;8.712;2023-07-31T04:58:30;17.40;82.50
25352;DHT22;13304;48.464;8.712;2023-07-31T05:00:55;17.40;83.20
25352;DHT22;13304;48.464;8.712;2023-07-31T05:03:21;17.50;82.50
25352;DHT22;13304;48.464;8.712;2023-07-31T05:05:47;17.50;82.50
25352;DHT22;13304;48.464;8.712;2023-07-31T05:08:12;17.50;82.40
25352;DHT22;13304;48.464;8.712;2023-07-31T05:10:38;17.50;82.40
25352;DHT22;13304;48.464;8.712;2023-07-31T05:13:04;17.50;82.50
25352;DHT22;13304;48.464;8.712;2023-07-31T05:15:29;17.60;82.50
25352;DHT22;13304;48.464;8.712;2023-07-31T05:17:55;17.60;82.60
25352;DHT22;13304;48.464;8.712;2023-07-31T05:20:21;17.60;82.60
25352;DHT22;13304;48.464;8.712;2023-07-31T05:22:47;17.60;82.50
25352;DHT22;13304;48.464;8.712;2023-07-31T05:25:12;17.70;82.50
25352;DHT22;13304;48.464;8.712;2023-07-31T05:27:38;17.70;82.60
25352;DHT22;13304;48.464;8.712;2023-07-31T05:30:05;17.70;82.60
25352;DHT22;13304;48.464;8.712;2023-07-31T05:32:30;17.70;82.50
25352;DHT22;13304;48.464;8.712;2023-07-31T05:34:56;17.70;82.50
25352;DHT22;13304;48.464;8.712;2023-07-31T05:37:22;17.80;82.30
25352;DHT22;13304;48.464;8.712;2023-07-31T05:39:48;17.80;82.20
25352;DHT22;13304;48.464;8.712;2023-07-31T05:42:13;17.80;82.10
25352;DHT22;13304;48.464;8.712;2023-07-31T05:44:39;17.80;82.00
25352;DHT22;13304;48.464;8.712;2023-07-31T05:47:05;17.80;82.10
25352;DHT22;13304;48.464;8.712;2023-07-31T05:49:30;17.80;82.10
25352;DHT22;13304;48.464;8.712;2023-07-31T05:51:56;17.80;82.70
25352;DHT22;13304;48.464;8.712;2023-07-31T05:54:22;17.80;82.00
25352;DHT22;13304;48.464;8.712;2023-07-31T05:56:47;17.80;82.10
25352;DHT22;13304;48.464;8.712;2023-07-31T05:59:13;17.90;82.10
25352;DHT22;13304;48.464;8.712;2023-07-31T06:01:39;17.90;82.00
25352;DHT22;13304;48.464;8.712;2023-07-31T06:04:05;17.90;82.10
25352;DHT22;13304;48.464;8.712;2023-07-31T06:06:31;17.90;82.10
25352;DHT22;13304;48.464;8.712;2023-07-31T06:08:56;17.90;82.00
25352;DHT22;13304;48.464;8.712;2023-07-31T06:11:22;18.00;82.40
25352;DHT22;13304;48.464;8.712;2023-07-31T06:13:48;18.00;82.50
25352;DHT22;13304;48.464;8.712;2023-07-31T06:16:15;18.10;82.50
25352;DHT22;13304;48.464;8.712;2023-07-31T06:18:42;18.10;82.50
25352;DHT22;13304;48.464;8.712;2023-07-31T06:21:09;18.20;82.40
25352;DHT22;13304;48.464;8.712;2023-07-31T06:23:35;18.20;82.30
25352;DHT22;13304;48.464;8.712;2023-07-31T06:26:01;18.30;82.40
25352;DHT22;13304;48.464;8.712;2023-07-31T06:28:31;18.40;82.50
25352;DHT22;13304;48.464;8.712;2023-07-31T06:30:57;18.50;81.90
25352;DHT22;13304;48.464;8.712;2023-07-31T06:33:23;18.60;81.90
25352;DHT22;13304;48.464;8.712;2023-07-31T06:35:49;18.60;81.40
25352;DHT22;13304;48.464;8.712;2023-07-31T06:38:14;18.70;81.30
25352;DHT22;13304;48.464;8.712;2023-07-31T06:40:40;18.80;80.80
25352;DHT22;13304;48.464;8.712;2023-07-31T06:43:06;18.80;80.70
25352;DHT22;13304;48.464;8.712;2023-07-31T06:45:36;18.80;80.40
25352;DHT22;13304;48.464;8.712;2023-07-31T06:48:03;18.90;79.70
25352;DHT22;13304;48.464;8.712;2023-07-31T06:50:33;18.90;79.90
25352;DHT22;13304;48.464;8.712;2023-07-31T06:52:59;18.90;79.50
25352;DHT22;13304;48.464;8.712;2023-07-31T06:55:25;19.00;79.50
25352;DHT22;13304;48.464;8.712;2023-07-31T06:57:53;19.00;79.10
25352;DHT22;13304;48.464;8.712;2023-07-31T07:00:19;19.00;78.90
25352;DHT22;13304;48.464;8.712;2023-07-31T07:02:45;19.00;78.40
25352;DHT22;13304;48.464;8.712;2023-07-31T07:05:13;19.00;78.90
25352;DHT22;13304;48.464;8.712;2023-07-31T07:07:38;19.10;78.90
25352;DHT22;13304;48.464;8.712;2023-07-31T07:10:04;19.10;79.10
25352;DHT22;13304;48.464;8.712;2023-07-31T07:12:31;19.10;78.90
25352;DHT22;13304;48.464;8.712;2023-07-31T07:14:57;19.20;78.50
25352;DHT22;13304;48.464;8.712;2023-07-31T07:17:24;19.20;78.20
25352;DHT22;13304;48.464;8.712;2023-07-31T07:19:50;19.20;78.00
25352;DHT22;13304;48.464;8.712;2023-07-31T07:22:15;19.30;77.80
25352;DHT22;13304;48.464;8.712;2023-07-31T07:24:41;19.30;77.50
25352;DHT22;13304;48.464;8.712;2023-07-31T07:27:07;19.30;77.30
25352;DHT22;13304;48.464;8.712;2023-07-31T07:29:34;19.40;77.10
25352;DHT22;13304;48.464;8.712;2023-07-31T07:31:59;19.30;76.70
25352;DHT22;13304;48.464;8.712;2023-07-31T07:34:26;19.40;76.70
25352;DHT22;13304;48.464;8.712;2023-07-31T07:36:53;19.40;76.80
25352;DHT22;13304;48.464;8.712;2023-07-31T07:39:19;19.40;76.70
25352;DHT22;13304;48.464;8.712;2023-07-31T07:41:44;19.40;76.40
25352;DHT22;13304;48.464;8.712;2023-07-31T07:44:10;19.50;76.40
25352;DHT22;13304;48.464;8.712;2023-07-31T07:46:35;19.50;76.70
25352;DHT22;13304;48.464;8.712;2023-07-31T07:49:01;19.50;76.50
25352;DHT22;13304;48.464;8.712;2023-07-31T07:51:27;19.50;75.60
25352;DHT22;13304;48.464;8.712;2023-07-31T07:53:52;19.50;76.00
25352;DHT22;13304;48.464;8.712;2023-07-31T07:56:18;19.60;76.80
25352;DHT22;13304;48.464;8.712;2023-07-31T07:58:43;19.70;76.30
25352;DHT22;13304;48.464;8.712;2023-07-31T08:01:09;19.70;75.40
25352;DHT22;13304;48.464;8.712;2023-07-31T08:03:34;19.70;76.10
25352;DHT22;13304;48.464;8.712;2023-07-31T08:06:01;19.80;75.70
25352;DHT22;13304;48.464;8.712;2023-07-31T08:08:27;19.90;75.80
25352;DHT22;13304;48.464;8.712;2023-07-31T08:10:53;20.00;75.90
25352;DHT22;13304;48.464;8.712;2023-07-31T08:13:19;20.10;74.60
25352;DHT22;13304;48.464;8.712;2023-07-31T08:15:44;20.20;73.10
25352;DHT22;13304;48.464;8.712;2023-07-31T08:18:11;20.30;74.10
25352;DHT22;13304;48.464;8.712;2023-07-31T08:20:37;20.30;73.50
25352;DHT22;13304;48.464;8.712;2023-07-31T08:23:03;20.40;73.10
25352;DHT22;13304;48.464;8.712;2023-07-31T08:25:29;20.50;73.00
25352;DHT22;13304;48.464;8.712;2023-07-31T08:27:55;20.50;73.30
25352;DHT22;13304;48.464;8.712;2023-07-31T08:30:21;20.60;73.30
25352;DHT22;13304;48.464;8.712;2023-07-31T08:32:46;20.70;72.40
25352;DHT22;13304;48.464;8.712;2023-07-31T08:35:12;20.70;71.20
25352;DHT22;13304;48.464;8.712;2023-07-31T08:37:38;20.80;70.20
25352;DHT22;13304;48.464;8.712;2023-07-31T08:40:04;20.90;70.60
25352;DHT22;13304;48.464;8.712;2023-07-31T08:42:31;20.90;71.00
25352;DHT22;13304;48.464;8.712;2023-07-31T08:44:56;21.00;70.70
25352;DHT22;13304;48.464;8.712;2023-07-31T08:47:23;21.00;69.80
25352;DHT22;13304;48.464;8.712;2023-07-31T08:49:50;21.10;69.90
25352;DHT22;13304;48.464;8.712;2023-07-31T08:52:16;21.10;70.10
25352;DHT22;13304;48.464;8.712;2023-07-31T08:54:42;21.20;68.20
25352;DHT22;13304;48.464;8.712;2023-07-31T08:57:08;21.20;68.50
25352;DHT22;13304;48.464;8.712;2023-07-31T08:59:35;21.30;68.90
25352;DHT22;13304;48.464;8.712;2023-07-31T09:02:05;21.30;69.40
25352;DHT22;13304;48.464;8.712;2023-07-31T09:04:32;21.40;69.90
25352;DHT22;13304;48.464;8.712;2023-07-31T09:07:01;21.40;70.00
25352;DHT22;13304;48.464;8.712;2023-07-31T09:09:27;21.40;69.70
25352;DHT22;13304;48.464;8.712;2023-07-31T09:11:52;21.50;69.10
25352;DHT22;13304;48.464;8.712;2023-07-31T09:14:19;21.50;68.30
25352;DHT22;13304;48.464;8.712;2023-07-31T09:16:55;21.60;68.60
25352;DHT22;13304;48.464;8.712;2023-07-31T09:19:35;21.60;66.70
25352;DHT22;13304;48.464;8.712;2023-07-31T09:22:05;21.70;67.20
25352;DHT22;13304;48.464;8.712;2023-07-31T09:24:32;21.70;66.70
25352;DHT22;13304;48.464;8.712;2023-07-31T09:26:59;21.70;65.50
25352;DHT22;13304;48.464;8.712;2023-07-31T09:29:25;21.80;66.60
25352;DHT22;13304;48.464;8.712;2023-07-31T09:31:52;21.80;66.10
25352;DHT22;13304;48.464;8.712;2023-07-31T09:34:18;21.90;66.40
25352;DHT22;13304;48.464;8.712;2023-07-31T09:36:49;22.00;66.60
25352;DHT22;13304;48.464;8.712;2023-07-31T09:39:17;22.00;66.10
25352;DHT22;13304;48.464;8.712;2023-07-31T09:41:44;22.10;65.40
25352;DHT22;13304;48.464;8.712;2023-07-31T09:44:11;22.10;65.10
25352;DHT22;13304;48.464;8.712;2023-07-31T09:46:37;22.20;64.20
25352;DHT22;13304;48.464;8.712;2023-07-31T09:49:10;22.20;63.50
25352;DHT22;13304;48.464;8.712;2023-07-31T09:51:40;22.20;63.90
25352;DHT22;13304;48.464;8.712;2023-07-31T09:54:14;22.20;63.80
25352;DHT22;13304;48.464;8.712;2023-07-31T09:56:47;22.20;63.60
25352;DHT22;13304;48.464;8.712;2023-07-31T09:59:18;22.20;64.00
25352;DHT22;13304;48.464;8.712;2023-07-31T10:01:46;22.30;65.40
25352;DHT22;13304;48.464;8.712;2023-07-31T10:04:13;22.30;65.60
25352;DHT22;13304;48.464;8.712;2023-07-31T10:06:40;22.40;65.70
25352;DHT22;13304;48.464;8.712;2023-07-31T10:09:08;22.40;65.80
25352;DHT22;13304;48.464;8.712;2023-07-31T10:11:38;22.50;65.80
25352;DHT22;13304;48.464;8.712;2023-07-31T10:14:07;22.60;65.50
25352;DHT22;13304;48.464;8.712;2023-07-31T10:16:35;22.70;64.20
25352;DHT22;13304;48.464;8.712;2023-07-31T10:19:01;22.80;64.10
25352;DHT22;13304;48.464;8.712;2023-07-31T10:21:27;22.90;64.00
25352;DHT22;13304;48.464;8.712;2023-07-31T10:23:55;23.00;64.10
25352;DHT22;13304;48.464;8.712;2023-07-31T10:26:21;23.10;62.80
25352;DHT22;13304;48.464;8.712;2023-07-31T10:28:50;23.20;63.10
25352;DHT22;13304;48.464;8.712;2023-07-31T10:31:16;23.20;62.80
25352;DHT22;13304;48.464;8.712;2023-07-31T10:33:42;23.30;63.50
25352;DHT22;13304;48.464;8.712;2023-07-31T10:36:18;23.30;61.20
25352;DHT22;13304;48.464;8.712;2023-07-31T10:38:44;23.30;60.40
25352;DHT22;13304;48.464;8.712;2023-07-31T10:41:10;23.30;59.30
25352;DHT22;13304;48.464;8.712;2023-07-31T10:43:37;23.30;58.80
25352;DHT22;13304;48.464;8.712;2023-07-31T10:46:13;23.30;59.80
25352;DHT22;13304;48.464;8.712;2023-07-31T10:48:40;23.30;59.80
25352;DHT22;13304;48.464;8.712;2023-07-31T10:51:11;23.30;60.10
25352;DHT22;13304;48.464;8.712;2023-07-31T10:53:41;23.20;60.30
25352;DHT22;13304;48.464;8.712;2023-07-31T10:56:10;23.20;61.30
25352;DHT22;13304;48.464;8.712;2023-07-31T10:58:39;23.20;61.60
25352;DHT22;13304;48.464;8.712;2023-07-31T11:01:06;23.30;62.10
25352;DHT22;13304;48.464;8.712;2023-07-31T11:03:47;23.30;61.80
25352;DHT22;13304;48.464;8.712;2023-07-31T11:06:15;23.30;59.80
25352;DHT22;13304;48.464;8.712;2023-07-31T11:11:12;23.40;58.90
25352;DHT22;13304;48.464;8.712;2023-07-31T11:13:49;23.50;59.60
25352;DHT22;13304;48.464;8.712;2023-07-31T11:16:16;23.50;58.80
25352;DHT22;13304;48.464;8.712;2023-07-31T11:18:43;23.60;58.80
25352;DHT22;13304;48.464;8.712;2023-07-31T11:21:17;23.60;58.90
25352;DHT22;13304;48.464;8.712;2023-07-31T11:23:47;23.60;59.00
25352;DHT22;13304;48.464;8.712;2023-07-31T11:26:14;23.70;59.30
25352;DHT22;13304;48.464;8.712;2023-07-31T11:28:40;23.70;59.70
25352;DHT22;13304;48.464;8.712;2023-07-31T11:31:09;23.80;59.90
25352;DHT22;13304;48.464;8.712;2023-07-31T11:33:35;23.90;60.40
25352;DHT22;13304;48.464;8.712;2023-07-31T11:36:00;23.90;59.60
25352;DHT22;13304;48.464;8.712;2023-07-31T11:38:27;23.90;59.00
25352;DHT22;13304;48.464;8.712;2023-07-31T11:40:54;23.90;58.90
25352;DHT22;13304;48.464;8.712;2023-07-31T11:43:21;23.80;58.40
25352;DHT22;13304;48.464;8.712;2023-07-31T11:45:51;23.80;58.80
25352;DHT22;13304;48.464;8.712;2023-07-31T11:50:50;23.70;58.70
25352;DHT22;13304;48.464;8.712;2023-07-31T11:53:19;23.70;59.10
25352;DHT22;13304;48.464;8.712;2023-07-31T11:55:46;23.60;59.10
25352;DHT22;13304;48.464;8.712;2023-07-31T11:58:13;23.70;60.60
25352;DHT22;13304;48.464;8.712;2023-07-31T12:00:40;23.60;61.50
25352;DHT22;13304;48.464;8.712;2023-07-31T12:03:06;23.60;62.60
25352;DHT22;13304;48.464;8.712;2023-07-31T12:05:32;23.60;62.80
25352;DHT22;13304;48.464;8.712;2023-07-31T12:07:58;23.60;62.60
25352;DHT22;13304;48.464;8.712;2023-07-31T12:10:28;23.60;62.20
25352;DHT22;13304;48.464;8.712;2023-07-31T12:13:02;23.70;61.80
25352;DHT22;13304;48.464;8.712;2023-07-31T12:15:36;23.70;60.80
25352;DHT22;13304;48.464;8.712;2023-07-31T12:18:07;23.70;61.70
25352;DHT22;13304;48.464;8.712;2023-07-31T12:20:33;23.80;61.60
25352;DHT22;13304;48.464;8.712;2023-07-31T12:22:59;23.90;61.70
25352;DHT22;13304;48.464;8.712;2023-07-31T12:25:32;24.00;62.00
25352;DHT22;13304;48.464;8.712;2023-07-31T12:28:04;24.00;61.30
25352;DHT22;13304;48.464;8.712;2023-07-31T12:30:33;24.10;59.90
25352;DHT22;13304;48.464;8.712;2023-07-31T12:33:06;24.20;59.20
25352;DHT22;13304;48.464;8.712;2023-07-31T12:35:37;24.20;59.20
25352;DHT22;13304;48.464;8.712;2023-07-31T12:38:03;24.30;58.40
25352;DHT22;13304;48.464;8.712;2023-07-31T12:40:29;24.40;58.60
25352;DHT22;13304;48.464;8.712;2023-07-31T12:42:54;24.30;57.40
25352;DHT22;13304;48.464;8.712;2023-07-31T12:45:20;24.40;58.20
25352;DHT22;13304;48.464;8.712;2023-07-31T12:47:46;24.40;57.80
25352;DHT22;13304;48.464;8.712;2023-07-31T12:50:12;24.40;58.40
25352;DHT22;13304;48.464;8.712;2023-07-31T12:52:38;24.40;57.70
25352;DHT22;13304;48.464;8.712;2023-07-31T12:55:04;24.40;58.00
25352;DHT22;13304;48.464;8.712;2023-07-31T12:57:30;24.40;58.20
25352;DHT22;13304;48.464;8.712;2023-07-31T12:59:56;24.40;58.20
25352;DHT22;13304;48.464;8.712;2023-07-31T13:02:21;24.40;58.10
25352;DHT22;13304;48.464;8.712;2023-07-31T13:04:49;24.40;58.10
25352;DHT22;13304;48.464;8.712;2023-07-31T13:07:15;24.40;58.00
25352;DHT22;13304;48.464;8.712;2023-07-31T13:09:41;24.40;58.20
25352;DHT22;13304;48.464;8.712;2023-07-31T13:12:07;24.40;58.40
25352;DHT22;13304;48.464;8.712;2023-07-31T13:14:32;24.30;58.40
25352;DHT22;13304;48.464;8.712;2023-07-31T13:16:58;24.40;58.70
25352;DHT22;13304;48.464;8.712;2023-07-31T13:19:24;24.30;58.10
25352;DHT22;13304;48.464;8.712;2023-07-31T13:21:49;24.30;58.30
25352;DHT22;13304;48.464;8.712;2023-07-31T13:24:15;24.30;58.50
25352;DHT22;13304;48.464;8.712;2023-07-31T13:26:40;24.30;58.10
25352;DHT22;13304;48.464;8.712;2023-07-31T13:29:06;24.30;58.00
25352;DHT22;13304;48.464;8.712;2023-07-31T13:31:32;24.30;58.30
25352;DHT22;13304;48.464;8.712;2023-07-31T13:33:57;24.20;56.70
25352;DHT22;13304;48.464;8.712;2023-07-31T13:36:23;24.20;56.50
25352;DHT22;13304;48.464;8.712;2023-07-31T13:38:49;24.10;56.70
25352;DHT22;13304;48.464;8.712;2023-07-31T13:41:14;24.00;56.80
25352;DHT22;13304;48.464;8.712;2023-07-31T13:43:40;24.00;57.50
25352;DHT22;13304;48.464;8.712;2023-07-31T13:46:06;23.90;57.40
25352;DHT22;13304;48.464;8.712;2023-07-31T13:48:36;23.80;56.90
25352;DHT22;13304;48.464;8.712;2023-07-31T13:51:02;23.70;57.30
25352;DHT22;13304;48.464;8.712;2023-07-31T13:53:28;23.60;57.50
25352;DHT22;13304;48.464;8.712;2023-07-31T13:55:53;23.70;58.30
25352;DHT22;13304;48.464;8.712;2023-07-31T13:58:21;23.60;58.60
25352;DHT22;13304;48.464;8.712;2023-07-31T14:00:46;23.60;58.60
25352;DHT22;13304;48.464;8.712;2023-07-31T14:03:12;23.60;58.10
25352;DHT22;13304;48.464;8.712;2023-07-31T14:05:38;23.60;58.20
25352;DHT22;13304;48.464;8.712;2023-07-31T14:08:03;23.60;58.20
25352;DHT22;13304;48.464;8.712;2023-07-31T14:10:29;23.60;58.10
25352;DHT22;13304;48.464;8.712;2023-07-31T14:12:55;23.60;58.80
25352;DHT22;13304;48.464;8.712;2023-07-31T14:15:20;23.70;58.80
25352;DHT22;13304;48.464;8.712;2023-07-31T14:17:46;23.80;59.30
25352;DHT22;13304;48.464;8.712;2023-07-31T14:20:12;23.80;59.10
25352;DHT22;13304;48.464;8.712;2023-07-31T14:22:37;23.80;59.30
25352;DHT22;13304;48.464;8.712;2023-07-31T14:25:04;23.90;59.30
25352;DHT22;13304;48.464;8.712;2023-07-31T14:27:30;23.90;59.60
25352;DHT22;13304;48.464;8.712;2023-07-31T14:29:55;23.90;60.00
25352;DHT22;13304;48.464;8.712;2023-07-31T14:32:22;24.00;59.70
25352;DHT22;13304;48.464;8.712;2023-07-31T14:34:49;24.10;59.70
25352;DHT22;13304;48.464;8.712;2023-07-31T14:37:14;24.20;59.40
25352;DHT22;13304;48.464;8.712;2023-07-31T14:39:40;24.20;58.30
25352;DHT22;13304;48.464;8.712;2023-07-31T14:42:05;24.20;58.50
25352;DHT22;13304;48.464;8.712;2023-07-31T14:44:31;24.30;58.90
25352;DHT22;13304;48.464;8.712;2023-07-31T14:46:57;24.30;59.40
25352;DHT22;13304;48.464;8.712;2023-07-31T14:49:23;24.30;58.70
25352;DHT22;13304;48.464;8.712;2023-07-31T14:51:49;24.30;58.10
25352;DHT22;13304;48.464;8.712;2023-07-31T14:54:14;24.30;58.40
25352;DHT22;13304;48.464;8.712;2023-07-31T14:56:40;24.30;59.10
25352;DHT22;13304;48.464;8.712;2023-07-31T14:59:05;24.30;58.30
25352;DHT22;13304;48.464;8.712;2023-07-31T15:01:33;24.30;58.70
25352;DHT22;13304;48.464;8.712;2023-07-31T15:03:59;24.30;59.30
25352;DHT22;13304;48.464;8.712;2023-07-31T15:06:24;24.30;58.90
25352;DHT22;13304;48.464;8.712;2023-07-31T15:08:50;24.30;59.10
25352;DHT22;13304;48.464;8.712;2023-07-31T15:11:16;24.30;58.80
25352;DHT22;13304;48.464;8.712;2023-07-31T15:13:41;24.30;58.80
25352;DHT22;13304;48.464;8.712;2023-07-31T15:16:07;24.30;59.10
25352;DHT22;13304;48.464;8.712;2023-07-31T15:18:32;24.30;58.60
25352;DHT22;13304;48.464;8.712;2023-07-31T15:20:58;24.30;59.00
25352;DHT22;13304;48.464;8.712;2023-07-31T15:23:24;24.30;59.00
25352;DHT22;13304;48.464;8.712;2023-07-31T15:25:51;24.40;59.00
25352;DHT22;13304;48.464;8.712;2023-07-31T15:28:18;24.40;59.30
25352;DHT22;13304;48.464;8.712;2023-07-31T15:30:43;24.50;59.00
25352;DHT22;13304;48.464;8.712;2023-07-31T15:33:09;24.50;59.10
25352;DHT22;13304;48.464;8.712;2023-07-31T15:35:38;24.50;58.80
25352;DHT22;13304;48.464;8.712;2023-07-31T15:38:03;24.60;58.60
25352;DHT22;13304;48.464;8.712;2023-07-31T15:40:29;24.60;58.60